createdAt,value
2022-12-25T00:01:13.485Z,12.11
2022-12-25T00:03:39.964Z,11.95
2022-12-25T00:06:07.747Z,11.40
2022-12-25T00:08:34.148Z,11.71
2022-12-25T00:11:04.817Z,11.39
2022-12-25T00:13:31.340Z,10.98
2022-12-25T00:16:01.209Z,11.46
2022-12-25T00:18:32.778Z,11.44
2022-12-25T00:21:03.619Z,11.53
2022-12-25T00:23:30.756Z,11.93
2022-12-25T00:25:57.212Z,11.61
2022-12-25T00:28:35.261Z,11.17
2022-12-25T00:31:13.997Z,9.90
2022-12-25T00:33:50.853Z,10.45
2022-12-25T00:36:17.283Z,11.09
2022-12-25T00:38:45.693Z,11.78
2022-12-25T00:41:32.478Z,11.96
2022-12-25T00:44:10.769Z,11.74
2022-12-25T00:46:54.311Z,11.00
2022-12-25T00:49:20.856Z,10.91
2022-12-25T01:03:15.872Z,12.34
2022-12-25T01:05:42.394Z,12.11
2022-12-25T01:08:26.306Z,12.09
2022-12-25T01:10:53.159Z,12.32
2022-12-25T01:18:49.764Z,12.31
2022-12-25T01:21:16.220Z,12.23
2022-12-25T01:24:02.957Z,12.32
2022-12-25T01:34:53.880Z,12.33
2022-12-25T01:48:24.520Z,11.99
2022-12-25T02:01:52.223Z,11.94
2022-12-25T02:04:22.845Z,12.12
2022-12-25T02:06:51.073Z,12.03
2022-12-25T02:12:04.411Z,12.08
2022-12-25T02:17:16.762Z,11.90
2022-12-25T02:33:25.230Z,12.12
2022-12-25T02:38:49.537Z,12.33
2022-12-25T02:46:46.956Z,12.26
2022-12-25T02:49:15.822Z,12.02
2022-12-25T03:02:40.614Z,11.59
2022-12-25T03:05:07.537Z,10.93
2022-12-25T03:07:34.190Z,10.43
2022-12-25T03:10:07.534Z,10.00
2022-12-25T03:13:02.257Z,10.50
2022-12-25T03:18:16.759Z,10.55
2022-12-25T03:20:45.219Z,10.82
2022-12-25T03:24:00.545Z,11.21
2022-12-25T03:31:29.771Z,10.79
2022-12-25T03:33:58.487Z,10.80
2022-12-25T03:36:35.025Z,10.43
2022-12-25T03:41:58.991Z,10.54
2022-12-25T03:44:33.032Z,9.49
2022-12-25T03:47:09.201Z,10.40
2022-12-25T03:49:35.584Z,10.06
2022-12-25T03:52:02.018Z,9.98
2022-12-25T03:54:34.874Z,10.95
2022-12-25T03:57:08.643Z,10.68
2022-12-25T03:59:51.529Z,10.80
2022-12-25T04:02:18.049Z,10.10
2022-12-25T04:04:44.833Z,10.69
2022-12-25T04:07:23.258Z,9.91
2022-12-25T04:09:51.515Z,9.58
2022-12-25T04:12:23.184Z,9.20
2022-12-25T04:15:03.655Z,10.13
2022-12-25T04:17:30.117Z,9.66
2022-12-25T04:19:56.619Z,9.69
2022-12-25T04:22:25.324Z,9.75
2022-12-25T04:27:47.323Z,9.05
2022-12-25T04:30:16.913Z,9.14
2022-12-25T04:32:43.391Z,8.92
2022-12-25T04:35:09.799Z,8.79
2022-12-25T04:37:43.563Z,9.87
2022-12-25T04:40:12.837Z,9.92
2022-12-25T04:42:44.800Z,9.20
2022-12-25T04:45:26.172Z,9.18
2022-12-25T04:47:52.670Z,9.65
2022-12-25T04:50:31.068Z,9.52
2022-12-25T04:53:11.809Z,9.24
2022-12-25T04:55:46.664Z,9.56
2022-12-25T04:58:35.283Z,8.92
2022-12-25T05:01:01.703Z,8.90
2022-12-25T05:03:28.144Z,8.55
2022-12-25T05:05:54.570Z,8.78
2022-12-25T05:08:25.108Z,8.39
2022-12-25T05:10:51.476Z,8.42
2022-12-25T05:13:31.934Z,8.98
2022-12-25T05:15:59.017Z,8.35
2022-12-25T05:18:25.464Z,8.60
2022-12-25T05:21:11.195Z,8.74
2022-12-25T05:23:55.559Z,8.86
2022-12-25T05:29:27.568Z,8.75
2022-12-25T05:31:54.077Z,9.43
2022-12-25T05:34:24.255Z,8.96
2022-12-25T05:42:13.114Z,10.29
2022-12-25T05:44:39.555Z,10.37
2022-12-25T05:47:09.238Z,10.97
2022-12-25T05:52:51.765Z,9.57
2022-12-25T05:55:39.552Z,10.39
2022-12-25T07:00:13.462Z,11.38
2022-12-25T07:02:42.759Z,10.97
2022-12-25T07:10:51.684Z,11.12
2022-12-25T07:13:22.486Z,11.36
2022-12-25T07:18:33.890Z,11.80
2022-12-25T07:29:15.951Z,12.10
2022-12-25T07:31:42.884Z,11.93
2022-12-25T07:42:33.818Z,12.18
2022-12-25T07:45:22.447Z,11.85
2022-12-25T08:26:58.494Z,12.11
2022-12-25T08:35:13.360Z,12.20
2022-12-25T08:37:42.657Z,12.06
2022-12-25T08:40:12.817Z,12.02
2022-12-25T08:42:39.484Z,11.62
2022-12-25T08:56:06.152Z,12.11
2022-12-25T08:58:32.706Z,12.04
2022-12-25T09:03:48.428Z,12.00
2022-12-25T09:06:20.675Z,11.89
2022-12-25T09:08:58.088Z,11.93
2022-12-25T09:11:24.911Z,12.31
2022-12-25T09:13:55.547Z,12.40
2022-12-25T09:27:19.870Z,12.50
2022-12-25T09:32:57.256Z,12.36
2022-12-25T09:55:24.108Z,12.13
2022-12-25T10:02:16.507Z,11.97
2022-12-25T10:09:02.059Z,12.11
2022-12-25T10:11:28.579Z,11.73
2022-12-25T10:13:59.210Z,11.83
2022-12-25T10:19:25.681Z,12.09
2022-12-25T10:21:55.871Z,12.70
2022-12-25T10:24:35.571Z,12.63
2022-12-25T10:27:05.074Z,12.05
2022-12-25T10:38:25.029Z,12.58
2022-12-25T10:40:55.953Z,12.17
2022-12-25T10:43:24.018Z,12.34
2022-12-25T10:51:33.352Z,12.36
2022-12-25T10:54:02.529Z,12.55
2022-12-25T10:56:30.551Z,12.79
2022-12-25T10:58:59.224Z,12.72
2022-12-25T11:07:03.751Z,12.63
2022-12-25T11:09:30.196Z,12.40
2022-12-25T11:11:58.856Z,12.57
2022-12-25T11:22:41.907Z,11.72
2022-12-25T11:25:31.231Z,11.82
2022-12-25T11:28:29.102Z,11.93
2022-12-25T11:33:39.529Z,12.59
2022-12-25T11:36:09.148Z,12.70
2022-12-25T11:38:39.840Z,12.53
2022-12-25T11:41:14.978Z,12.34
2022-12-25T11:46:46.027Z,11.98
2022-12-25T11:46:56.722Z,12.65
2022-12-25T11:49:13.789Z,10.57
2022-12-25T11:51:42.377Z,9.93
2022-12-25T11:54:08.815Z,9.11
2022-12-25T11:56:35.382Z,8.83
2022-12-25T12:07:22.468Z,10.48
2022-12-25T12:09:51.731Z,10.58
2022-12-25T12:17:45.647Z,11.62
2022-12-25T12:20:41.359Z,11.03
2022-12-25T12:23:08.788Z,10.97
2022-12-25T12:25:35.358Z,10.98
2022-12-25T12:28:05.848Z,11.11
2022-12-25T12:30:36.418Z,9.92
2022-12-25T12:33:16.569Z,10.19
2022-12-25T12:35:42.925Z,10.76
2022-12-25T12:38:09.399Z,9.61
2022-12-25T12:40:37.579Z,10.99
2022-12-25T12:51:34.316Z,10.71
2022-12-25T12:54:00.825Z,9.74
2022-12-25T12:56:27.299Z,9.80
2022-12-25T13:01:53.536Z,10.57
2022-12-25T13:04:29.059Z,11.04
2022-12-25T13:06:59.033Z,11.26
2022-12-25T13:09:28.346Z,11.74
2022-12-25T13:17:35.240Z,11.38
2022-12-25T13:20:02.920Z,11.12
2022-12-25T13:22:29.388Z,11.63
2022-12-25T13:25:06.086Z,11.43
2022-12-25T13:46:48.078Z,12.54
2022-12-25T13:49:24.748Z,12.24
2022-12-25T13:52:00.051Z,12.06
2022-12-25T13:54:31.370Z,12.28
2022-12-25T13:57:00.250Z,12.08
2022-12-25T14:02:25.759Z,12.02
2022-12-25T14:07:49.655Z,11.27
2022-12-25T14:10:18.728Z,12.04
2022-12-25T14:18:12.367Z,11.95
2022-12-25T14:20:41.203Z,11.93
2022-12-25T14:23:15.208Z,10.56
2022-12-25T14:37:21.319Z,12.34
2022-12-25T14:48:06.828Z,11.17
2022-12-25T14:53:28.342Z,12.09
2022-12-25T14:58:36.780Z,11.50
2022-12-25T15:01:17.220Z,11.99
2022-12-25T15:03:43.918Z,10.87
2022-12-25T15:06:17.008Z,10.96
2022-12-25T15:08:43.509Z,10.90
2022-12-25T15:16:49.026Z,11.07
2022-12-25T15:21:59.891Z,9.92
2022-12-25T15:24:26.678Z,10.71
2022-12-25T15:26:53.054Z,11.02
2022-12-25T15:29:44.559Z,11.49
2022-12-25T15:32:09.159Z,11.30
2022-12-25T15:34:35.582Z,10.91
2022-12-25T15:37:01.965Z,11.13
2022-12-25T15:39:37.483Z,11.29
2022-12-25T15:44:44.277Z,9.86
2022-12-25T15:47:10.670Z,10.08
2022-12-25T15:49:39.499Z,9.99
2022-12-25T15:52:06.496Z,10.70
2022-12-25T15:54:39.571Z,10.75
2022-12-25T15:59:49.035Z,11.18
2022-12-25T16:02:15.575Z,11.34
2022-12-25T16:04:44.395Z,11.69
2022-12-25T16:07:12.417Z,11.82
2022-12-25T16:09:40.546Z,12.16
2022-12-25T16:12:08.184Z,12.05
2022-12-25T16:14:39.340Z,12.39
2022-12-25T16:17:08.583Z,12.43
2022-12-25T16:19:37.367Z,12.24
2022-12-25T16:22:08.754Z,12.23
2022-12-25T16:24:48.586Z,11.97
2022-12-25T16:38:10.114Z,11.43
2022-12-25T16:40:42.871Z,10.30
2022-12-25T16:43:23.777Z,10.19
2022-12-25T16:45:56.336Z,10.52
2022-12-25T16:48:23.037Z,11.30
2022-12-25T16:50:51.239Z,11.36
2022-12-25T16:53:20.043Z,10.89
2022-12-25T16:55:46.495Z,10.63
2022-12-25T16:58:13.108Z,11.19
2022-12-25T17:00:42.110Z,11.35
2022-12-25T17:03:14.307Z,11.21
2022-12-25T17:05:41.229Z,11.39
2022-12-25T17:08:09.948Z,11.37
2022-12-25T17:13:35.092Z,11.25
2022-12-25T17:16:03.866Z,10.66
2022-12-25T17:18:32.241Z,11.03
2022-12-25T17:24:01.261Z,9.40
2022-12-25T17:29:26.146Z,8.88
2022-12-25T17:31:56.242Z,8.69
2022-12-25T17:34:22.707Z,8.07
2022-12-25T17:39:27.263Z,9.57
2022-12-25T17:44:41.610Z,10.04
2022-12-25T17:47:10.746Z,9.83
2022-12-25T17:49:37.973Z,9.04
2022-12-25T17:52:04.533Z,9.07
2022-12-25T17:54:30.958Z,9.33
2022-12-25T18:02:24.129Z,10.33
2022-12-25T18:04:54.947Z,9.96
2022-12-25T18:07:21.742Z,10.36
2022-12-25T18:10:04.219Z,10.44
2022-12-25T18:12:42.608Z,10.57
2022-12-25T18:15:08.991Z,10.44
2022-12-25T18:18:44.090Z,10.65
2022-12-25T18:23:15.126Z,10.05
2022-12-25T18:26:10.377Z,10.29
2022-12-25T18:31:19.881Z,9.71
2022-12-25T18:33:59.152Z,9.78
2022-12-25T18:37:33.134Z,8.85
2022-12-25T18:39:49.958Z,8.14
2022-12-25T18:45:14.847Z,9.21
2022-12-25T18:47:44.432Z,9.23
2022-12-25T18:50:10.825Z,8.79
2022-12-25T18:52:51.574Z,9.54
2022-12-25T18:58:21.174Z,10.59
2022-12-25T19:00:49.872Z,10.48
2022-12-25T19:03:21.546Z,10.30
2022-12-25T19:08:41.625Z,10.38
2022-12-25T19:11:14.372Z,10.76
2022-12-25T19:14:02.848Z,10.73
2022-12-25T19:16:47.784Z,10.33
2022-12-25T19:19:17.119Z,9.42
2022-12-25T19:21:46.261Z,9.71
2022-12-25T19:28:33.595Z,10.09
2022-12-25T19:30:12.518Z,9.71
2022-12-25T19:32:39.292Z,10.22
2022-12-25T19:40:25.705Z,9.98
2022-12-25T19:43:00.640Z,10.53
2022-12-25T19:48:14.830Z,10.42
2022-12-25T19:50:44.776Z,10.73
2022-12-25T19:53:24.034Z,9.56
2022-12-25T20:01:32.277Z,10.35
2022-12-25T20:03:58.729Z,9.67
2022-12-25T20:06:25.315Z,8.76
2022-12-25T20:08:51.936Z,9.29
2022-12-25T20:11:19.932Z,9.70
2022-12-25T20:13:53.868Z,9.84
2022-12-25T20:19:20.861Z,9.55
2022-12-25T20:30:12.081Z,10.64
2022-12-25T20:32:50.684Z,10.67
2022-12-25T20:38:01.737Z,10.92
2022-12-25T20:40:52.965Z,10.54
2022-12-25T20:43:23.353Z,10.20
2022-12-25T20:45:50.053Z,10.54
2022-12-25T20:48:17.607Z,9.89
2022-12-25T20:50:51.151Z,10.01
2022-12-25T20:53:24.280Z,9.73
2022-12-25T20:55:59.950Z,9.58
2022-12-25T21:01:21.107Z,10.38
2022-12-25T21:03:52.760Z,10.45
2022-12-25T21:06:26.181Z,10.57
2022-12-25T21:08:52.976Z,9.85
2022-12-25T21:11:30.927Z,9.22
2022-12-25T21:14:00.355Z,9.33
2022-12-25T21:16:32.136Z,8.89
2022-12-25T21:19:02.464Z,8.19
2022-12-25T21:24:25.024Z,9.98
2022-12-25T21:26:59.904Z,10.07
2022-12-25T21:29:31.861Z,10.57
2022-12-25T21:32:02.558Z,10.63
2022-12-25T21:40:01.112Z,10.46
2022-12-25T21:42:27.613Z,9.85
2022-12-25T21:45:00.572Z,8.47
2022-12-25T21:48:00.340Z,9.21
2022-12-25T21:50:21.306Z,9.87
2022-12-25T21:55:37.147Z,10.44
2022-12-25T21:58:12.880Z,10.27
2022-12-25T22:00:45.911Z,9.96
2022-12-25T22:03:30.707Z,9.48
2022-12-25T22:08:43.375Z,10.06
2022-12-25T22:11:09.914Z,9.26
2022-12-25T22:13:45.462Z,7.95
2022-12-25T22:16:25.848Z,9.07
2022-12-25T22:18:52.792Z,8.86
2022-12-25T22:21:19.483Z,8.73
2022-12-25T22:23:45.904Z,8.53
2022-12-25T22:26:18.818Z,8.15
2022-12-25T22:28:48.738Z,8.72
2022-12-25T22:31:15.320Z,9.49
2022-12-25T22:33:41.722Z,9.94
2022-12-25T22:36:08.118Z,9.29
2022-12-25T22:38:34.475Z,9.60
2022-12-25T22:41:00.890Z,9.17
2022-12-25T22:43:50.639Z,9.50
2022-12-25T22:46:13.853Z,9.64
2022-12-25T22:48:40.312Z,9.51
2022-12-25T22:51:06.681Z,8.79
2022-12-25T22:53:33.105Z,9.08
2022-12-25T22:55:59.513Z,9.78
2022-12-25T22:58:25.943Z,9.35
2022-12-25T23:00:52.310Z,8.37
2022-12-25T23:03:18.837Z,8.48
2022-12-25T23:05:45.379Z,9.07
2022-12-25T23:08:11.797Z,8.93
2022-12-25T23:10:38.323Z,9.49
2022-12-25T23:13:04.991Z,9.43
2022-12-25T23:15:31.517Z,9.55
2022-12-25T23:17:58.091Z,8.25
2022-12-25T23:20:27.045Z,9.34
2022-12-25T23:22:53.449Z,9.37
2022-12-25T23:25:23.842Z,9.70
2022-12-25T23:27:50.211Z,9.42
2022-12-25T23:30:18.161Z,9.11
2022-12-25T23:32:44.645Z,9.60
2022-12-25T23:35:11.038Z,9.05
2022-12-25T23:37:37.417Z,8.70
2022-12-25T23:40:03.930Z,9.16
2022-12-25T23:42:32.991Z,8.84
2022-12-25T23:44:59.388Z,8.48
2022-12-25T23:47:25.823Z,8.98
2022-12-25T23:49:52.232Z,8.97
2022-12-25T23:52:18.589Z,8.76
2022-12-25T23:54:45.000Z,8.37
2022-12-25T23:57:15.334Z,8.78
2022-12-25T23:59:41.759Z,8.65
